sensor_id;sensor_type;location;lat;lon;timestamp;P1;durP1;ratioP1;P2;durP2;ratioP2
4553;SDS011;2289;48.316;15.174;2023-11-19T00:01:07;10.20;;;8.60;;
4553;SDS011;2289;48.316;15.174;2023-11-19T00:03:36;14.67;;;8.60;;
4553;SDS011;2289;48.316;15.174;2023-11-19T00:06:06;11.23;;;9.60;;
4553;SDS011;2289;48.316;15.174;2023-11-19T00:08:38;11.83;;;9.40;;
4553;SDS011;2289;48.316;15.174;2023-11-19T00:11:06;14.50;;;10.60;;
4553;SDS011;2289;48.316;15.174;2023-11-19T00:13:35;13.47;;;10.13;;
4553;SDS011;2289;48.316;15.174;2023-11-19T00:16:05;16.80;;;12.17;;
4553;SDS011;2289;48.316;15.174;2023-11-19T00:18:36;12.70;;;9.83;;
4553;SDS011;2289;48.316;15.174;2023-11-19T00:21:07;11.90;;;9.97;;
4553;SDS011;2289;48.316;15.174;2023-11-19T00:23:37;12.30;;;8.77;;
4553;SDS011;2289;48.316;15.174;2023-11-19T00:26:06;11.50;;;8.67;;
4553;SDS011;2289;48.316;15.174;2023-11-19T00:28:38;8.27;;;7.47;;
4553;SDS011;2289;48.316;15.174;2023-11-19T00:31:07;11.70;;;8.27;;
4553;SDS011;2289;48.316;15.174;2023-11-19T00:33:36;9.70;;;8.27;;
4553;SDS011;2289;48.316;15.174;2023-11-19T00:36:17;14.27;;;8.17;;
4553;SDS011;2289;48.316;15.174;2023-11-19T00:38:46;18.07;;;11.03;;
4553;SDS011;2289;48.316;15.174;2023-11-19T00:41:15;12.47;;;8.67;;
4553;SDS011;2289;48.316;15.174;2023-11-19T00:43:44;14.73;;;9.27;;
4553;SDS011;2289;48.316;15.174;2023-11-19T00:46:13;14.73;;;9.63;;
4553;SDS011;2289;48.316;15.174;2023-11-19T00:48:42;21.93;;;11.27;;
4553;SDS011;2289;48.316;15.174;2023-11-19T00:51:11;13.90;;;11.13;;
4553;SDS011;2289;48.316;15.174;2023-11-19T00:53:42;13.60;;;11.10;;
4553;SDS011;2289;48.316;15.174;2023-11-19T00:56:11;16.23;;;11.77;;
4553;SDS011;2289;48.316;15.174;2023-11-19T00:58:40;23.20;;;12.83;;
4553;SDS011;2289;48.316;15.174;2023-11-19T01:01:09;23.80;;;13.27;;
4553;SDS011;2289;48.316;15.174;2023-11-19T01:03:38;17.70;;;12.60;;
4553;SDS011;2289;48.316;15.174;2023-11-19T01:06:07;17.47;;;12.43;;
4553;SDS011;2289;48.316;15.174;2023-11-19T01:08:36;16.77;;;12.70;;
4553;SDS011;2289;48.316;15.174;2023-11-19T01:11:08;12.20;;;10.70;;
4553;SDS011;2289;48.316;15.174;2023-11-19T01:13:41;11.57;;;9.67;;
4553;SDS011;2289;48.316;15.174;2023-11-19T01:16:12;10.30;;;8.50;;
4553;SDS011;2289;48.316;15.174;2023-11-19T01:18:46;13.17;;;9.57;;
4553;SDS011;2289;48.316;15.174;2023-11-19T01:21:38;11.43;;;9.17;;
4553;SDS011;2289;48.316;15.174;2023-11-19T01:24:11;11.63;;;9.20;;
4553;SDS011;2289;48.316;15.174;2023-11-19T01:26:45;11.23;;;8.17;;
4553;SDS011;2289;48.316;15.174;2023-11-19T01:29:18;12.30;;;9.20;;
4553;SDS011;2289;48.316;15.174;2023-11-19T01:31:54;12.10;;;9.73;;
4553;SDS011;2289;48.316;15.174;2023-11-19T01:34:26;10.57;;;8.97;;
4553;SDS011;2289;48.316;15.174;2023-11-19T01:36:57;12.57;;;9.23;;
4553;SDS011;2289;48.316;15.174;2023-11-19T01:39:28;13.73;;;9.80;;
4553;SDS011;2289;48.316;15.174;2023-11-19T01:42:03;14.53;;;10.03;;
4553;SDS011;2289;48.316;15.174;2023-11-19T01:44:34;15.70;;;11.30;;
4553;SDS011;2289;48.316;15.174;2023-11-19T01:47:06;12.53;;;8.77;;
4553;SDS011;2289;48.316;15.174;2023-11-19T01:49:37;12.50;;;9.43;;
4553;SDS011;2289;48.316;15.174;2023-11-19T01:52:11;11.90;;;8.97;;
4553;SDS011;2289;48.316;15.174;2023-11-19T01:54:41;10.20;;;9.10;;
4553;SDS011;2289;48.316;15.174;2023-11-19T01:57:14;9.67;;;8.33;;
4553;SDS011;2289;48.316;15.174;2023-11-19T01:59:45;13.33;;;9.23;;
4553;SDS011;2289;48.316;15.174;2023-11-19T02:02:18;10.30;;;8.87;;
4553;SDS011;2289;48.316;15.174;2023-11-19T02:04:50;13.27;;;10.13;;
4553;SDS011;2289;48.316;15.174;2023-11-19T02:07:21;12.13;;;9.40;;
4553;SDS011;2289;48.316;15.174;2023-11-19T02:09:54;15.13;;;10.20;;
4553;SDS011;2289;48.316;15.174;2023-11-19T02:12:28;11.67;;;9.30;;
4553;SDS011;2289;48.316;15.174;2023-11-19T02:15:01;12.47;;;8.87;;
4553;SDS011;2289;48.316;15.174;2023-11-19T02:17:31;12.13;;;9.50;;
4553;SDS011;2289;48.316;15.174;2023-11-19T02:20:02;13.07;;;9.97;;
4553;SDS011;2289;48.316;15.174;2023-11-19T02:22:34;9.50;;;8.50;;
4553;SDS011;2289;48.316;15.174;2023-11-19T02:25:06;12.13;;;9.20;;
4553;SDS011;2289;48.316;15.174;2023-11-19T02:27:43;13.20;;;10.23;;
4553;SDS011;2289;48.316;15.174;2023-11-19T02:30:18;11.37;;;8.90;;
4553;SDS011;2289;48.316;15.174;2023-11-19T02:32:48;15.53;;;10.37;;
4553;SDS011;2289;48.316;15.174;2023-11-19T02:35:19;11.60;;;9.47;;
4553;SDS011;2289;48.316;15.174;2023-11-19T02:37:50;13.00;;;9.70;;
4553;SDS011;2289;48.316;15.174;2023-11-19T02:40:20;15.80;;;13.03;;
4553;SDS011;2289;48.316;15.174;2023-11-19T02:42:53;16.80;;;10.90;;
4553;SDS011;2289;48.316;15.174;2023-11-19T02:45:24;13.60;;;11.20;;
4553;SDS011;2289;48.316;15.174;2023-11-19T02:47:58;15.47;;;11.33;;
4553;SDS011;2289;48.316;15.174;2023-11-19T02:50:32;14.30;;;10.87;;
4553;SDS011;2289;48.316;15.174;2023-11-19T02:53:03;14.10;;;9.93;;
4553;SDS011;2289;48.316;15.174;2023-11-19T02:55:38;14.60;;;10.13;;
4553;SDS011;2289;48.316;15.174;2023-11-19T02:58:11;17.17;;;10.50;;
4553;SDS011;2289;48.316;15.174;2023-11-19T03:00:48;14.07;;;9.90;;
4553;SDS011;2289;48.316;15.174;2023-11-19T03:03:25;14.97;;;8.80;;
4553;SDS011;2289;48.316;15.174;2023-11-19T03:06:06;13.37;;;9.73;;
4553;SDS011;2289;48.316;15.174;2023-11-19T03:08:37;13.47;;;9.10;;
4553;SDS011;2289;48.316;15.174;2023-11-19T03:11:07;12.30;;;9.43;;
4553;SDS011;2289;48.316;15.174;2023-11-19T03:13:42;13.77;;;9.13;;
4553;SDS011;2289;48.316;15.174;2023-11-19T03:16:12;13.53;;;10.73;;
4553;SDS011;2289;48.316;15.174;2023-11-19T03:18:46;14.67;;;10.03;;
4553;SDS011;2289;48.316;15.174;2023-11-19T03:21:18;13.27;;;9.00;;
4553;SDS011;2289;48.316;15.174;2023-11-19T03:23:49;15.03;;;10.00;;
4553;SDS011;2289;48.316;15.174;2023-11-19T03:26:19;13.50;;;10.50;;
4553;SDS011;2289;48.316;15.174;2023-11-19T03:28:51;14.60;;;10.37;;
4553;SDS011;2289;48.316;15.174;2023-11-19T03:31:22;12.10;;;8.63;;
4553;SDS011;2289;48.316;15.174;2023-11-19T03:33:53;13.07;;;8.90;;
4553;SDS011;2289;48.316;15.174;2023-11-19T03:36:31;15.40;;;9.40;;
4553;SDS011;2289;48.316;15.174;2023-11-19T03:39:02;10.80;;;7.73;;
4553;SDS011;2289;48.316;15.174;2023-11-19T03:41:36;9.63;;;8.33;;
4553;SDS011;2289;48.316;15.174;2023-11-19T03:44:11;13.63;;;9.20;;
4553;SDS011;2289;48.316;15.174;2023-11-19T03:46:43;10.37;;;8.10;;
4553;SDS011;2289;48.316;15.174;2023-11-19T03:49:14;11.93;;;9.43;;
4553;SDS011;2289;48.316;15.174;2023-11-19T03:51:45;11.47;;;8.80;;
4553;SDS011;2289;48.316;15.174;2023-11-19T03:54:19;12.40;;;7.60;;
4553;SDS011;2289;48.316;15.174;2023-11-19T03:56:51;8.10;;;7.30;;
4553;SDS011;2289;48.316;15.174;2023-11-19T03:59:24;12.73;;;8.07;;
4553;SDS011;2289;48.316;15.174;2023-11-19T04:01:55;8.10;;;6.20;;
4553;SDS011;2289;48.316;15.174;2023-11-19T04:04:29;7.30;;;6.43;;
4553;SDS011;2289;48.316;15.174;2023-11-19T04:07:01;10.97;;;6.37;;
4553;SDS011;2289;48.316;15.174;2023-11-19T04:09:33;9.67;;;8.33;;
4553;SDS011;2289;48.316;15.174;2023-11-19T04:12:05;8.67;;;6.60;;
4553;SDS011;2289;48.316;15.174;2023-11-19T04:14:38;10.07;;;7.50;;
4553;SDS011;2289;48.316;15.174;2023-11-19T04:17:09;15.50;;;9.50;;
4553;SDS011;2289;48.316;15.174;2023-11-19T04:19:40;18.30;;;12.33;;
4553;SDS011;2289;48.316;15.174;2023-11-19T04:22:14;16.67;;;9.73;;
4553;SDS011;2289;48.316;15.174;2023-11-19T04:24:45;16.93;;;10.73;;
4553;SDS011;2289;48.316;15.174;2023-11-19T04:27:16;11.67;;;8.33;;
4553;SDS011;2289;48.316;15.174;2023-11-19T04:29:48;10.83;;;8.23;;
4553;SDS011;2289;48.316;15.174;2023-11-19T04:32:20;10.50;;;7.70;;
4553;SDS011;2289;48.316;15.174;2023-11-19T04:34:50;8.20;;;7.40;;
4553;SDS011;2289;48.316;15.174;2023-11-19T04:37:20;8.50;;;5.97;;
4553;SDS011;2289;48.316;15.174;2023-11-19T04:39:50;7.70;;;6.47;;
4553;SDS011;2289;48.316;15.174;2023-11-19T04:42:22;9.50;;;7.10;;
4553;SDS011;2289;48.316;15.174;2023-11-19T04:44:55;9.27;;;6.77;;
4553;SDS011;2289;48.316;15.174;2023-11-19T04:47:26;9.80;;;7.30;;
4553;SDS011;2289;48.316;15.174;2023-11-19T04:49:59;6.67;;;5.97;;
4553;SDS011;2289;48.316;15.174;2023-11-19T04:52:29;9.13;;;7.87;;
4553;SDS011;2289;48.316;15.174;2023-11-19T04:55:00;7.50;;;6.70;;
4553;SDS011;2289;48.316;15.174;2023-11-19T04:57:34;6.93;;;6.23;;
4553;SDS011;2289;48.316;15.174;2023-11-19T05:00:12;6.90;;;6.10;;
4553;SDS011;2289;48.316;15.174;2023-11-19T05:02:43;8.40;;;6.40;;
4553;SDS011;2289;48.316;15.174;2023-11-19T05:05:15;8.07;;;7.13;;
4553;SDS011;2289;48.316;15.174;2023-11-19T05:07:44;9.47;;;6.73;;
4553;SDS011;2289;48.316;15.174;2023-11-19T05:10:14;6.87;;;5.80;;
4553;SDS011;2289;48.316;15.174;2023-11-19T05:12:43;6.67;;;6.07;;
4553;SDS011;2289;48.316;15.174;2023-11-19T05:15:14;7.03;;;6.33;;
4553;SDS011;2289;48.316;15.174;2023-11-19T05:17:43;6.80;;;6.00;;
4553;SDS011;2289;48.316;15.174;2023-11-19T05:20:12;8.30;;;6.63;;
4553;SDS011;2289;48.316;15.174;2023-11-19T05:22:41;6.90;;;5.50;;
4553;SDS011;2289;48.316;15.174;2023-11-19T05:25:12;7.47;;;5.57;;
4553;SDS011;2289;48.316;15.174;2023-11-19T05:27:41;6.70;;;5.30;;
4553;SDS011;2289;48.316;15.174;2023-11-19T05:30:10;6.13;;;5.50;;
4553;SDS011;2289;48.316;15.174;2023-11-19T05:32:41;5.97;;;5.30;;
4553;SDS011;2289;48.316;15.174;2023-11-19T05:35:10;6.17;;;4.87;;
4553;SDS011;2289;48.316;15.174;2023-11-19T05:37:39;4.87;;;4.27;;
4553;SDS011;2289;48.316;15.174;2023-11-19T05:40:08;4.63;;;4.23;;
4553;SDS011;2289;48.316;15.174;2023-11-19T05:42:42;10.40;;;5.23;;
4553;SDS011;2289;48.316;15.174;2023-11-19T05:45:11;4.80;;;4.30;;
4553;SDS011;2289;48.316;15.174;2023-11-19T05:47:42;4.80;;;3.90;;
4553;SDS011;2289;48.316;15.174;2023-11-19T05:50:10;6.97;;;5.37;;
4553;SDS011;2289;48.316;15.174;2023-11-19T05:52:39;3.57;;;3.07;;
4553;SDS011;2289;48.316;15.174;2023-11-19T05:55:08;4.13;;;3.73;;
4553;SDS011;2289;48.316;15.174;2023-11-19T05:57:38;5.13;;;4.00;;
4553;SDS011;2289;48.316;15.174;2023-11-19T06:00:10;4.47;;;3.60;;
4553;SDS011;2289;48.316;15.174;2023-11-19T06:02:44;4.73;;;4.03;;
4553;SDS011;2289;48.316;15.174;2023-11-19T06:05:12;4.30;;;3.43;;
4553;SDS011;2289;48.316;15.174;2023-11-19T06:07:41;4.67;;;3.70;;
4553;SDS011;2289;48.316;15.174;2023-11-19T06:10:09;5.00;;;4.30;;
4553;SDS011;2289;48.316;15.174;2023-11-19T06:12:39;4.07;;;3.63;;
4553;SDS011;2289;48.316;15.174;2023-11-19T06:15:09;3.53;;;3.23;;
4553;SDS011;2289;48.316;15.174;2023-11-19T06:17:38;3.63;;;3.33;;
4553;SDS011;2289;48.316;15.174;2023-11-19T06:20:10;2.83;;;2.47;;
4553;SDS011;2289;48.316;15.174;2023-11-19T06:22:41;3.93;;;3.57;;
4553;SDS011;2289;48.316;15.174;2023-11-19T06:25:10;3.30;;;3.00;;
4553;SDS011;2289;48.316;15.174;2023-11-19T06:27:41;3.37;;;3.07;;
4553;SDS011;2289;48.316;15.174;2023-11-19T06:30:10;3.10;;;2.67;;
4553;SDS011;2289;48.316;15.174;2023-11-19T06:32:39;4.87;;;4.27;;
4553;SDS011;2289;48.316;15.174;2023-11-19T06:35:08;7.93;;;5.97;;
4553;SDS011;2289;48.316;15.174;2023-11-19T06:37:38;6.93;;;6.20;;
4553;SDS011;2289;48.316;15.174;2023-11-19T06:40:07;9.03;;;7.00;;
4553;SDS011;2289;48.316;15.174;2023-11-19T06:42:37;7.77;;;6.10;;
4553;SDS011;2289;48.316;15.174;2023-11-19T06:45:07;8.33;;;6.97;;
4553;SDS011;2289;48.316;15.174;2023-11-19T06:47:36;8.30;;;6.63;;
4553;SDS011;2289;48.316;15.174;2023-11-19T06:50:06;6.97;;;6.20;;
4553;SDS011;2289;48.316;15.174;2023-11-19T06:52:37;6.90;;;5.70;;
4553;SDS011;2289;48.316;15.174;2023-11-19T06:55:07;6.70;;;5.70;;
4553;SDS011;2289;48.316;15.174;2023-11-19T06:57:36;6.20;;;5.60;;
4553;SDS011;2289;48.316;15.174;2023-11-19T07:00:05;6.50;;;5.63;;
4553;SDS011;2289;48.316;15.174;2023-11-19T07:02:35;6.00;;;5.47;;
4553;SDS011;2289;48.316;15.174;2023-11-19T07:05:04;6.73;;;6.03;;
4553;SDS011;2289;48.316;15.174;2023-11-19T07:07:33;8.20;;;7.23;;
4553;SDS011;2289;48.316;15.174;2023-11-19T07:10:04;6.77;;;6.07;;
4553;SDS011;2289;48.316;15.174;2023-11-19T07:12:36;6.70;;;5.50;;
4553;SDS011;2289;48.316;15.174;2023-11-19T07:15:05;6.43;;;5.73;;
4553;SDS011;2289;48.316;15.174;2023-11-19T07:17:35;5.73;;;5.23;;
4553;SDS011;2289;48.316;15.174;2023-11-19T07:20:09;7.13;;;6.33;;
4553;SDS011;2289;48.316;15.174;2023-11-19T07:22:42;5.27;;;4.57;;
4553;SDS011;2289;48.316;15.174;2023-11-19T07:25:14;4.50;;;4.00;;
4553;SDS011;2289;48.316;15.174;2023-11-19T07:27:43;5.10;;;4.03;;
4553;SDS011;2289;48.316;15.174;2023-11-19T07:30:11;4.00;;;3.07;;
4553;SDS011;2289;48.316;15.174;2023-11-19T07:32:41;4.47;;;3.97;;
4553;SDS011;2289;48.316;15.174;2023-11-19T07:35:10;4.40;;;3.80;;
4553;SDS011;2289;48.316;15.174;2023-11-19T07:37:38;9.50;;;7.80;;
4553;SDS011;2289;48.316;15.174;2023-11-19T07:40:08;10.20;;;8.00;;
4553;SDS011;2289;48.316;15.174;2023-11-19T07:42:39;10.00;;;8.50;;
4553;SDS011;2289;48.316;15.174;2023-11-19T07:45:08;12.93;;;9.30;;
4553;SDS011;2289;48.316;15.174;2023-11-19T07:47:38;13.70;;;11.43;;
4553;SDS011;2289;48.316;15.174;2023-11-19T07:50:07;30.00;;;19.90;;
4553;SDS011;2289;48.316;15.174;2023-11-19T07:52:38;31.80;;;20.07;;
4553;SDS011;2289;48.316;15.174;2023-11-19T07:55:07;30.40;;;21.60;;
4553;SDS011;2289;48.316;15.174;2023-11-19T07:57:36;32.83;;;21.60;;
4553;SDS011;2289;48.316;15.174;2023-11-19T08:00:07;23.53;;;18.00;;
4553;SDS011;2289;48.316;15.174;2023-11-19T08:02:39;27.67;;;17.40;;
4553;SDS011;2289;48.316;15.174;2023-11-19T08:05:08;20.30;;;14.90;;
4553;SDS011;2289;48.316;15.174;2023-11-19T08:07:38;17.70;;;13.30;;
4553;SDS011;2289;48.316;15.174;2023-11-19T08:10:07;11.00;;;9.70;;
4553;SDS011;2289;48.316;15.174;2023-11-19T08:12:38;13.80;;;9.63;;
4553;SDS011;2289;48.316;15.174;2023-11-19T08:15:08;12.93;;;9.67;;
4553;SDS011;2289;48.316;15.174;2023-11-19T08:17:38;13.10;;;10.83;;
4553;SDS011;2289;48.316;15.174;2023-11-19T08:20:10;20.90;;;11.00;;
4553;SDS011;2289;48.316;15.174;2023-11-19T08:22:40;13.60;;;10.00;;
4553;SDS011;2289;48.316;15.174;2023-11-19T08:25:09;13.93;;;10.40;;
4553;SDS011;2289;48.316;15.174;2023-11-19T08:27:38;12.00;;;10.20;;
4553;SDS011;2289;48.316;15.174;2023-11-19T08:30:09;12.17;;;9.63;;
4553;SDS011;2289;48.316;15.174;2023-11-19T08:32:38;24.23;;;17.40;;
4553;SDS011;2289;48.316;15.174;2023-11-19T08:35:08;20.57;;;14.00;;
4553;SDS011;2289;48.316;15.174;2023-11-19T08:37:37;27.40;;;19.60;;
4553;SDS011;2289;48.316;15.174;2023-11-19T08:40:06;30.47;;;19.90;;
4553;SDS011;2289;48.316;15.174;2023-11-19T08:42:36;31.57;;;21.30;;
4553;SDS011;2289;48.316;15.174;2023-11-19T08:45:06;28.10;;;17.30;;
4553;SDS011;2289;48.316;15.174;2023-11-19T08:47:38;21.50;;;14.80;;
4553;SDS011;2289;48.316;15.174;2023-11-19T08:50:07;19.10;;;14.27;;
4553;SDS011;2289;48.316;15.174;2023-11-19T08:52:36;18.70;;;12.83;;
4553;SDS011;2289;48.316;15.174;2023-11-19T08:55:05;17.63;;;14.10;;
4553;SDS011;2289;48.316;15.174;2023-11-19T08:57:37;22.20;;;14.83;;
4553;SDS011;2289;48.316;15.174;2023-11-19T09:00:06;27.90;;;17.67;;
4553;SDS011;2289;48.316;15.174;2023-11-19T09:02:41;30.33;;;19.87;;
4553;SDS011;2289;48.316;15.174;2023-11-19T09:05:14;17.67;;;12.53;;
4553;SDS011;2289;48.316;15.174;2023-11-19T09:07:44;8.03;;;6.60;;
4553;SDS011;2289;48.316;15.174;2023-11-19T09:10:12;2.90;;;2.30;;
4553;SDS011;2289;48.316;15.174;2023-11-19T09:12:41;4.17;;;2.40;;
4553;SDS011;2289;48.316;15.174;2023-11-19T09:15:11;1.00;;;0.90;;
4553;SDS011;2289;48.316;15.174;2023-11-19T09:17:42;7.20;;;5.03;;
4553;SDS011;2289;48.316;15.174;2023-11-19T09:20:12;1.33;;;1.23;;
4553;SDS011;2289;48.316;15.174;2023-11-19T09:22:42;17.93;;;13.70;;
4553;SDS011;2289;48.316;15.174;2023-11-19T09:25:11;1.57;;;1.10;;
4553;SDS011;2289;48.316;15.174;2023-11-19T09:27:43;1.10;;;0.80;;
4553;SDS011;2289;48.316;15.174;2023-11-19T09:30:16;1.27;;;0.80;;
4553;SDS011;2289;48.316;15.174;2023-11-19T09:32:45;1.13;;;0.70;;
4553;SDS011;2289;48.316;15.174;2023-11-19T09:35:14;0.50;;;0.50;;
4553;SDS011;2289;48.316;15.174;2023-11-19T09:37:43;0.60;;;0.60;;
4553;SDS011;2289;48.316;15.174;2023-11-19T09:40:12;0.50;;;0.50;;
4553;SDS011;2289;48.316;15.174;2023-11-19T09:42:42;0.70;;;0.70;;
4553;SDS011;2289;48.316;15.174;2023-11-19T09:45:13;0.90;;;0.80;;
4553;SDS011;2289;48.316;15.174;2023-11-19T09:47:44;1.03;;;0.97;;
4553;SDS011;2289;48.316;15.174;2023-11-19T09:50:16;0.83;;;0.70;;
4553;SDS011;2289;48.316;15.174;2023-11-19T09:52:46;0.70;;;0.70;;
4553;SDS011;2289;48.316;15.174;2023-11-19T09:55:14;0.80;;;0.80;;
4553;SDS011;2289;48.316;15.174;2023-11-19T09:57:48;1.80;;;1.23;;
4553;SDS011;2289;48.316;15.174;2023-11-19T10:00:18;1.03;;;0.80;;
4553;SDS011;2289;48.316;15.174;2023-11-19T10:02:49;0.90;;;0.90;;
4553;SDS011;2289;48.316;15.174;2023-11-19T10:05:18;1.10;;;0.97;;
4553;SDS011;2289;48.316;15.174;2023-11-19T10:07:49;0.73;;;0.73;;
4553;SDS011;2289;48.316;15.174;2023-11-19T10:10:18;0.70;;;0.70;;
4553;SDS011;2289;48.316;15.174;2023-11-19T10:12:46;0.80;;;0.80;;
4553;SDS011;2289;48.316;15.174;2023-11-19T10:15:19;0.70;;;0.70;;
4553;SDS011;2289;48.316;15.174;2023-11-19T10:17:50;1.00;;;0.83;;
4553;SDS011;2289;48.316;15.174;2023-11-19T10:20:19;0.70;;;0.70;;
4553;SDS011;2289;48.316;15.174;2023-11-19T10:22:48;0.80;;;0.80;;
4553;SDS011;2289;48.316;15.174;2023-11-19T10:25:24;0.70;;;0.70;;
4553;SDS011;2289;48.316;15.174;2023-11-19T10:27:54;0.90;;;0.80;;
4553;SDS011;2289;48.316;15.174;2023-11-19T10:30:23;2.90;;;1.13;;
4553;SDS011;2289;48.316;15.174;2023-11-19T10:33:04;1.00;;;0.90;;
4553;SDS011;2289;48.316;15.174;2023-11-19T10:35:33;0.90;;;0.90;;
4553;SDS011;2289;48.316;15.174;2023-11-19T10:38:13;0.90;;;0.90;;
4553;SDS011;2289;48.316;15.174;2023-11-19T10:40:42;0.90;;;0.90;;
4553;SDS011;2289;48.316;15.174;2023-11-19T10:43:11;1.03;;;0.93;;
4553;SDS011;2289;48.316;15.174;2023-11-19T10:45:43;1.30;;;1.20;;
4553;SDS011;2289;48.316;15.174;2023-11-19T10:48:14;1.37;;;1.27;;
4553;SDS011;2289;48.316;15.174;2023-11-19T10:50:43;0.70;;;0.70;;
4553;SDS011;2289;48.316;15.174;2023-11-19T10:53:12;2.17;;;0.93;;
4553;SDS011;2289;48.316;15.174;2023-11-19T10:55:41;1.80;;;0.97;;
4553;SDS011;2289;48.316;15.174;2023-11-19T10:58:15;0.97;;;0.70;;
4553;SDS011;2289;48.316;15.174;2023-11-19T11:00:45;0.67;;;0.67;;
4553;SDS011;2289;48.316;15.174;2023-11-19T11:03:18;0.70;;;0.60;;
4553;SDS011;2289;48.316;15.174;2023-11-19T11:05:48;0.80;;;0.60;;
4553;SDS011;2289;48.316;15.174;2023-11-19T11:08:17;2.73;;;0.80;;
4553;SDS011;2289;48.316;15.174;2023-11-19T11:10:48;0.67;;;0.50;;
4553;SDS011;2289;48.316;15.174;2023-11-19T11:13:24;0.50;;;0.50;;
4553;SDS011;2289;48.316;15.174;2023-11-19T11:15:55;0.80;;;0.80;;
4553;SDS011;2289;48.316;15.174;2023-11-19T11:18:26;0.50;;;0.50;;
4553;SDS011;2289;48.316;15.174;2023-11-19T11:20:57;0.77;;;0.60;;
4553;SDS011;2289;48.316;15.174;2023-11-19T11:23:45;1.37;;;0.80;;
4553;SDS011;2289;48.316;15.174;2023-11-19T11:26:38;0.60;;;0.60;;
4553;SDS011;2289;48.316;15.174;2023-11-19T11:29:24;0.60;;;0.60;;
4553;SDS011;2289;48.316;15.174;2023-11-19T11:31:58;0.60;;;0.60;;
4553;SDS011;2289;48.316;15.174;2023-11-19T11:34:45;1.67;;;0.70;;
4553;SDS011;2289;48.316;15.174;2023-11-19T11:37:30;0.93;;;0.60;;
4553;SDS011;2289;48.316;15.174;2023-11-19T11:40:01;0.90;;;0.80;;
4553;SDS011;2289;48.316;15.174;2023-11-19T11:42:35;1.10;;;0.80;;
4553;SDS011;2289;48.316;15.174;2023-11-19T11:45:05;2.70;;;0.97;;
4553;SDS011;2289;48.316;15.174;2023-11-19T11:50:53;1.30;;;0.87;;
4553;SDS011;2289;48.316;15.174;2023-11-19T11:53:24;0.77;;;0.77;;
4553;SDS011;2289;48.316;15.174;2023-11-19T11:55:56;1.30;;;0.90;;
4553;SDS011;2289;48.316;15.174;2023-11-19T11:58:34;1.33;;;0.87;;
4553;SDS011;2289;48.316;15.174;2023-11-19T12:01:04;0.90;;;0.80;;
4553;SDS011;2289;48.316;15.174;2023-11-19T12:03:34;1.07;;;0.90;;
4553;SDS011;2289;48.316;15.174;2023-11-19T12:06:04;0.77;;;0.77;;
4553;SDS011;2289;48.316;15.174;2023-11-19T12:08:35;0.90;;;0.90;;
4553;SDS011;2289;48.316;15.174;2023-11-19T12:11:09;1.20;;;1.03;;
4553;SDS011;2289;48.316;15.174;2023-11-19T12:16:29;3.13;;;1.27;;
4553;SDS011;2289;48.316;15.174;2023-11-19T12:19:03;1.13;;;1.00;;
4553;SDS011;2289;48.316;15.174;2023-11-19T12:21:34;1.07;;;0.90;;
4553;SDS011;2289;48.316;15.174;2023-11-19T12:24:05;1.13;;;0.97;;
4553;SDS011;2289;48.316;15.174;2023-11-19T12:26:35;0.80;;;0.80;;
4553;SDS011;2289;48.316;15.174;2023-11-19T12:29:05;1.67;;;0.80;;
4553;SDS011;2289;48.316;15.174;2023-11-19T12:31:36;0.87;;;0.80;;
4553;SDS011;2289;48.316;15.174;2023-11-19T12:34:06;0.87;;;0.87;;
4553;SDS011;2289;48.316;15.174;2023-11-19T12:36:41;0.80;;;0.80;;
4553;SDS011;2289;48.316;15.174;2023-11-19T12:39:11;0.80;;;0.80;;
4553;SDS011;2289;48.316;15.174;2023-11-19T12:41:49;1.07;;;1.00;;
4553;SDS011;2289;48.316;15.174;2023-11-19T12:44:20;1.40;;;0.70;;
4553;SDS011;2289;48.316;15.174;2023-11-19T12:47:02;0.70;;;0.70;;
4553;SDS011;2289;48.316;15.174;2023-11-19T12:49:31;1.20;;;1.07;;
4553;SDS011;2289;48.316;15.174;2023-11-19T12:52:02;0.77;;;0.77;;
4553;SDS011;2289;48.316;15.174;2023-11-19T12:54:39;1.00;;;1.00;;
4553;SDS011;2289;48.316;15.174;2023-11-19T12:57:09;1.13;;;0.80;;
4553;SDS011;2289;48.316;15.174;2023-11-19T12:59:38;1.30;;;0.70;;
4553;SDS011;2289;48.316;15.174;2023-11-19T13:02:07;0.70;;;0.70;;
4553;SDS011;2289;48.316;15.174;2023-11-19T13:04:35;1.10;;;1.00;;
4553;SDS011;2289;48.316;15.174;2023-11-19T13:07:06;0.97;;;0.83;;
4553;SDS011;2289;48.316;15.174;2023-11-19T13:09:35;1.00;;;0.90;;
4553;SDS011;2289;48.316;15.174;2023-11-19T13:12:12;2.03;;;1.27;;
4553;SDS011;2289;48.316;15.174;2023-11-19T13:14:42;0.90;;;0.90;;
4553;SDS011;2289;48.316;15.174;2023-11-19T13:17:14;1.40;;;0.73;;
4553;SDS011;2289;48.316;15.174;2023-11-19T13:19:43;1.63;;;1.10;;
4553;SDS011;2289;48.316;15.174;2023-11-19T13:22:17;1.30;;;1.20;;
4553;SDS011;2289;48.316;15.174;2023-11-19T13:24:48;1.70;;;0.90;;
4553;SDS011;2289;48.316;15.174;2023-11-19T13:27:17;0.70;;;0.70;;
4553;SDS011;2289;48.316;15.174;2023-11-19T13:29:46;1.43;;;1.33;;
4553;SDS011;2289;48.316;15.174;2023-11-19T13:32:16;1.00;;;1.00;;
4553;SDS011;2289;48.316;15.174;2023-11-19T13:34:45;5.23;;;1.00;;
4553;SDS011;2289;48.316;15.174;2023-11-19T13:37:14;0.90;;;0.90;;
4553;SDS011;2289;48.316;15.174;2023-11-19T13:39:44;1.23;;;0.93;;
4553;SDS011;2289;48.316;15.174;2023-11-19T13:42:14;1.20;;;1.10;;
4553;SDS011;2289;48.316;15.174;2023-11-19T13:44:42;0.90;;;0.90;;
4553;SDS011;2289;48.316;15.174;2023-11-19T13:47:11;0.90;;;0.90;;
4553;SDS011;2289;48.316;15.174;2023-11-19T13:49:41;1.00;;;0.80;;
4553;SDS011;2289;48.316;15.174;2023-11-19T13:52:10;0.90;;;0.90;;
4553;SDS011;2289;48.316;15.174;2023-11-19T13:54:39;1.30;;;1.03;;
4553;SDS011;2289;48.316;15.174;2023-11-19T13:57:10;0.80;;;0.70;;
4553;SDS011;2289;48.316;15.174;2023-11-19T13:59:42;1.00;;;0.90;;
4553;SDS011;2289;48.316;15.174;2023-11-19T14:02:11;0.70;;;0.70;;
4553;SDS011;2289;48.316;15.174;2023-11-19T14:04:40;0.80;;;0.80;;
4553;SDS011;2289;48.316;15.174;2023-11-19T14:07:09;1.20;;;0.80;;
4553;SDS011;2289;48.316;15.174;2023-11-19T14:09:38;0.60;;;0.60;;
4553;SDS011;2289;48.316;15.174;2023-11-19T14:12:10;1.10;;;0.80;;
4553;SDS011;2289;48.316;15.174;2023-11-19T14:14:39;0.70;;;0.70;;
4553;SDS011;2289;48.316;15.174;2023-11-19T14:17:11;0.70;;;0.70;;
4553;SDS011;2289;48.316;15.174;2023-11-19T14:19:42;0.63;;;0.60;;
4553;SDS011;2289;48.316;15.174;2023-11-19T14:22:11;1.33;;;0.93;;
4553;SDS011;2289;48.316;15.174;2023-11-19T14:24:39;0.77;;;0.77;;
4553;SDS011;2289;48.316;15.174;2023-11-19T14:27:11;1.33;;;0.70;;
4553;SDS011;2289;48.316;15.174;2023-11-19T14:29:40;1.03;;;0.90;;
4553;SDS011;2289;48.316;15.174;2023-11-19T14:32:09;0.90;;;0.90;;
4553;SDS011;2289;48.316;15.174;2023-11-19T14:34:38;0.70;;;0.70;;
4553;SDS011;2289;48.316;15.174;2023-11-19T14:37:07;1.20;;;0.73;;
4553;SDS011;2289;48.316;15.174;2023-11-19T14:39:36;0.67;;;0.67;;
4553;SDS011;2289;48.316;15.174;2023-11-19T14:42:05;0.90;;;0.90;;
4553;SDS011;2289;48.316;15.174;2023-11-19T14:44:37;1.20;;;1.10;;
4553;SDS011;2289;48.316;15.174;2023-11-19T14:47:06;1.10;;;0.77;;
4553;SDS011;2289;48.316;15.174;2023-11-19T14:49:35;0.80;;;0.80;;
4553;SDS011;2289;48.316;15.174;2023-11-19T14:52:04;2.27;;;1.00;;
4553;SDS011;2289;48.316;15.174;2023-11-19T14:54:35;1.20;;;1.10;;
4553;SDS011;2289;48.316;15.174;2023-11-19T14:57:05;3.00;;;2.67;;
4553;SDS011;2289;48.316;15.174;2023-11-19T14:59:36;5.00;;;3.20;;
4553;SDS011;2289;48.316;15.174;2023-11-19T15:02:05;1.63;;;1.53;;
4553;SDS011;2289;48.316;15.174;2023-11-19T15:04:34;2.83;;;2.40;;
4553;SDS011;2289;48.316;15.174;2023-11-19T15:07:04;3.70;;;3.30;;
4553;SDS011;2289;48.316;15.174;2023-11-19T15:09:33;6.13;;;3.30;;
4553;SDS011;2289;48.316;15.174;2023-11-19T15:12:04;3.40;;;3.10;;
4553;SDS011;2289;48.316;15.174;2023-11-19T15:14:33;5.07;;;4.50;;
4553;SDS011;2289;48.316;15.174;2023-11-19T15:17:04;9.50;;;6.83;;
4553;SDS011;2289;48.316;15.174;2023-11-19T15:19:33;8.40;;;5.87;;
4553;SDS011;2289;48.316;15.174;2023-11-19T15:22:02;10.20;;;5.43;;